createdAt,value
2023-02-27T00:01:48.567Z,62.21
2023-02-27T00:04:16.969Z,61.86
2023-02-27T00:06:45.170Z,62.01
2023-02-27T00:09:13.464Z,61.93
2023-02-27T00:11:43.383Z,62.12
2023-02-27T00:14:11.821Z,61.69
2023-02-27T00:16:40.057Z,61.86
2023-02-27T00:19:10.196Z,61.31
2023-02-27T00:21:38.431Z,61.69
2023-02-27T00:24:07.718Z,61.53
2023-02-27T00:26:36.699Z,61.72
2023-02-27T00:29:05.490Z,61.69
2023-02-27T00:31:34.768Z,61.42
2023-02-27T00:34:04.171Z,61.03
2023-02-27T00:36:33.838Z,61.35
2023-02-27T00:39:03.336Z,61.05
2023-02-27T00:41:31.623Z,60.96
2023-02-27T00:44:00.279Z,61.14
2023-02-27T00:46:28.544Z,60.97
2023-02-27T00:48:56.754Z,61.02
2023-02-27T00:51:27.260Z,61.25
2023-02-27T00:53:58.391Z,61.37
2023-02-27T00:56:26.973Z,61.81
2023-02-27T00:58:55.592Z,61.80
2023-02-27T01:01:24.072Z,61.55
2023-02-27T01:03:52.560Z,61.75
2023-02-27T01:06:20.741Z,61.61
2023-02-27T01:08:49.135Z,61.38
2023-02-27T01:11:18.862Z,60.89
2023-02-27T01:13:47.361Z,61.00
2023-02-27T01:16:15.890Z,61.22
2023-02-27T01:18:44.179Z,61.52
2023-02-27T01:21:12.488Z,61.52
2023-02-27T01:23:40.842Z,62.00
2023-02-27T01:26:09.238Z,62.09
2023-02-27T01:28:38.901Z,61.97
2023-02-27T01:31:07.664Z,62.36
2023-02-27T01:33:35.893Z,62.27
2023-02-27T01:36:04.270Z,62.37
2023-02-27T01:38:32.470Z,62.52
2023-02-27T01:41:02.052Z,62.65
2023-02-27T01:43:30.283Z,62.35
2023-02-27T01:46:00.835Z,62.64
2023-02-27T01:48:34.552Z,62.83
2023-02-27T01:51:06.171Z,62.83
2023-02-27T01:53:36.232Z,63.16
2023-02-27T01:56:11.370Z,62.98
2023-02-27T01:58:40.321Z,63.47
2023-02-27T02:01:10.317Z,63.41
2023-02-27T02:03:45.038Z,63.70
2023-02-27T02:06:14.089Z,63.69
2023-02-27T02:08:45.576Z,63.73
2023-02-27T02:11:16.184Z,64.07
2023-02-27T02:13:47.065Z,64.00
2023-02-27T02:16:30.660Z,64.22
2023-02-27T02:19:08.035Z,64.26
2023-02-27T02:22:15.276Z,64.61
2023-02-27T02:25:16.252Z,64.82
2023-02-27T02:28:03.066Z,64.95
2023-02-27T02:30:53.815Z,65.06
2023-02-27T02:34:10.002Z,65.13
2023-02-27T02:37:25.446Z,65.22
2023-02-27T02:40:17.581Z,65.35
2023-02-27T02:42:53.874Z,65.31
2023-02-27T02:45:32.045Z,65.40
2023-02-27T02:48:13.396Z,65.70
2023-02-27T02:50:49.552Z,65.75
2023-02-27T02:53:36.148Z,65.90
2023-02-27T02:56:12.015Z,66.13
2023-02-27T02:58:49.076Z,66.85
2023-02-27T03:01:19.780Z,67.03
2023-02-27T03:03:54.517Z,66.81
2023-02-27T03:06:29.663Z,67.43
2023-02-27T03:09:04.638Z,67.51
2023-02-27T03:11:39.414Z,67.20
2023-02-27T03:14:12.438Z,67.80
2023-02-27T03:16:44.185Z,68.16
2023-02-27T03:19:18.671Z,68.92
2023-02-27T03:21:51.479Z,69.42
2023-02-27T03:24:24.790Z,69.81
2023-02-27T03:26:57.269Z,70.33
2023-02-27T03:29:44.875Z,70.45
2023-02-27T03:32:18.966Z,70.56
2023-02-27T03:34:48.652Z,70.60
2023-02-27T03:37:32.935Z,70.87
2023-02-27T03:40:09.291Z,70.81
2023-02-27T03:42:44.087Z,71.12
2023-02-27T03:45:32.476Z,71.27
2023-02-27T03:48:01.499Z,71.00
2023-02-27T03:50:30.457Z,71.04
2023-02-27T03:52:59.068Z,71.31
2023-02-27T03:55:34.163Z,70.79
2023-02-27T03:58:04.102Z,70.76
2023-02-27T04:00:33.257Z,70.37
2023-02-27T04:03:03.037Z,70.34
2023-02-27T04:05:32.773Z,70.67
2023-02-27T04:08:27.048Z,70.69
2023-02-27T04:11:09.383Z,70.89
2023-02-27T04:13:48.772Z,70.86
2023-02-27T04:16:47.917Z,71.35
2023-02-27T04:19:34.527Z,71.34
2023-02-27T04:22:14.058Z,71.29
2023-02-27T04:24:53.511Z,71.44
2023-02-27T04:27:32.618Z,71.84
2023-02-27T04:30:14.539Z,71.84
2023-02-27T04:32:49.158Z,72.50
2023-02-27T04:35:23.788Z,72.87
2023-02-27T04:37:59.706Z,73.00
2023-02-27T04:40:34.935Z,73.64
2023-02-27T04:43:08.028Z,73.52
2023-02-27T04:45:41.540Z,73.58
2023-02-27T04:48:17.084Z,73.83
2023-02-27T04:50:50.265Z,74.18
2023-02-27T04:53:23.674Z,74.62
2023-02-27T04:55:56.485Z,74.82
2023-02-27T04:58:29.778Z,75.22
2023-02-27T05:01:04.350Z,75.45
2023-02-27T05:03:36.696Z,75.83
2023-02-27T05:06:05.271Z,76.12
2023-02-27T05:08:40.000Z,75.98
2023-02-27T05:11:12.409Z,75.71
2023-02-27T05:13:47.822Z,75.61
2023-02-27T05:16:24.811Z,75.68
2023-02-27T05:18:53.165Z,75.85
2023-02-27T05:21:29.162Z,75.43
2023-02-27T05:24:08.005Z,75.63
2023-02-27T05:26:48.408Z,75.55
2023-02-27T05:29:25.218Z,75.62
2023-02-27T05:32:00.154Z,75.55
2023-02-27T05:34:34.710Z,75.50
2023-02-27T05:37:09.042Z,75.57
2023-02-27T05:39:41.105Z,76.05
2023-02-27T05:42:15.186Z,75.82
2023-02-27T05:44:48.935Z,75.77
2023-02-27T05:47:21.939Z,75.74
2023-02-27T05:49:54.598Z,75.49
2023-02-27T05:52:26.646Z,75.76
2023-02-27T05:55:00.751Z,75.55
2023-02-27T05:57:34.795Z,75.69
2023-02-27T06:00:09.521Z,75.75
2023-02-27T06:02:43.785Z,75.65
2023-02-27T06:05:16.389Z,75.63
2023-02-27T06:07:44.763Z,75.91
2023-02-27T06:10:16.053Z,76.00
2023-02-27T06:12:44.610Z,76.99
2023-02-27T06:15:13.686Z,77.66
2023-02-27T06:17:43.287Z,78.46
2023-02-27T06:20:12.960Z,78.61
2023-02-27T06:22:41.402Z,78.12
2023-02-27T06:25:10.711Z,78.16
2023-02-27T06:27:39.012Z,77.60
2023-02-27T06:30:08.614Z,77.87
2023-02-27T06:32:37.166Z,77.30
2023-02-27T06:35:08.030Z,77.01
2023-02-27T06:37:36.304Z,77.19
2023-02-27T06:40:06.038Z,76.74
2023-02-27T06:42:34.360Z,77.12
2023-02-27T06:45:02.761Z,76.88
2023-02-27T06:47:31.008Z,77.06
2023-02-27T06:49:59.333Z,76.95
2023-02-27T06:52:29.620Z,76.93
2023-02-27T06:54:58.524Z,76.63
2023-02-27T06:57:27.145Z,76.91
2023-02-27T06:59:55.436Z,76.89
2023-02-27T07:02:25.702Z,76.84
2023-02-27T07:04:54.563Z,77.00
2023-02-27T07:07:32.250Z,76.96
2023-02-27T07:10:06.924Z,77.12
2023-02-27T07:12:35.688Z,77.11
2023-02-27T07:15:04.785Z,77.35
2023-02-27T07:17:33.095Z,77.07
2023-02-27T07:20:01.730Z,77.65
2023-02-27T07:22:30.235Z,77.96
2023-02-27T07:24:58.500Z,77.75
2023-02-27T07:27:28.214Z,77.96
2023-02-27T07:29:56.524Z,77.65
2023-02-27T07:32:25.115Z,77.81
2023-02-27T07:34:53.366Z,77.79
2023-02-27T07:37:21.670Z,77.71
2023-02-27T07:39:49.901Z,77.19
2023-02-27T07:42:18.139Z,76.99
2023-02-27T07:44:47.821Z,76.84
2023-02-27T07:47:17.749Z,76.39
2023-02-27T07:49:46.308Z,76.49
2023-02-27T07:52:14.591Z,76.37
2023-02-27T07:54:42.898Z,76.52
2023-02-27T07:57:11.511Z,76.43
2023-02-27T07:59:39.820Z,76.24
2023-02-27T08:02:10.733Z,76.42
2023-02-27T08:04:39.552Z,76.37
2023-02-27T08:07:08.274Z,75.85
2023-02-27T08:09:36.585Z,76.38
2023-02-27T08:12:05.072Z,76.25
2023-02-27T08:14:33.376Z,76.82
2023-02-27T08:17:01.700Z,77.47
2023-02-27T08:19:31.694Z,77.99
2023-02-27T08:22:00.013Z,78.70
2023-02-27T08:24:28.384Z,78.81
2023-02-27T08:26:57.408Z,78.57
2023-02-27T08:29:25.757Z,77.80
2023-02-27T08:31:54.321Z,76.87
2023-02-27T08:34:22.755Z,75.21
2023-02-27T08:36:52.872Z,74.53
2023-02-27T08:39:24.413Z,73.04
2023-02-27T08:41:52.984Z,73.01
2023-02-27T08:44:22.035Z,73.82
2023-02-27T08:46:50.336Z,75.16
2023-02-27T08:49:21.467Z,76.02
2023-02-27T08:51:50.014Z,77.01
2023-02-27T08:54:20.735Z,77.58
2023-02-27T08:56:49.388Z,78.66
2023-02-27T08:59:17.878Z,78.09
2023-02-27T09:01:46.314Z,77.28
2023-02-27T09:04:14.721Z,76.89
2023-02-27T09:06:43.042Z,76.61
2023-02-27T09:09:11.550Z,76.46
2023-02-27T09:11:41.566Z,76.33
2023-02-27T09:14:09.916Z,73.29
2023-02-27T09:16:38.233Z,70.78
2023-02-27T09:19:07.178Z,67.01
2023-02-27T09:21:37.477Z,65.55
2023-02-27T09:24:17.575Z,64.68
2023-02-27T09:26:49.176Z,64.18
2023-02-27T09:29:17.890Z,65.81
2023-02-27T09:31:46.806Z,66.73
2023-02-27T09:34:15.192Z,68.77
2023-02-27T09:36:43.582Z,69.38
2023-02-27T09:39:12.369Z,70.60
2023-02-27T09:41:53.794Z,71.68
2023-02-27T09:44:46.123Z,72.00
2023-02-27T09:47:20.484Z,73.89
2023-02-27T09:49:58.463Z,73.75
2023-02-27T09:52:27.534Z,74.50
2023-02-27T09:54:56.100Z,74.10
2023-02-27T09:57:35.949Z,71.74
2023-02-27T10:00:10.072Z,71.07
2023-02-27T10:02:55.899Z,70.64
2023-02-27T10:05:32.838Z,71.59
2023-02-27T10:08:10.788Z,71.70
2023-02-27T10:10:44.927Z,71.89
2023-02-27T10:13:38.034Z,71.15
2023-02-27T10:16:08.253Z,70.63
2023-02-27T10:18:52.282Z,67.43
2023-02-27T10:21:25.125Z,64.27
2023-02-27T10:23:57.418Z,61.78
2023-02-27T10:26:30.187Z,62.71
2023-02-27T10:29:03.705Z,65.40
2023-02-27T10:31:36.091Z,66.88
2023-02-27T10:34:04.422Z,69.49
2023-02-27T10:36:34.701Z,70.36
2023-02-27T10:39:08.672Z,70.87
2023-02-27T10:41:39.912Z,70.84
2023-02-27T10:44:15.635Z,71.16
2023-02-27T10:46:43.964Z,71.49
2023-02-27T10:49:18.856Z,71.36
2023-02-27T10:51:47.634Z,71.41
2023-02-27T10:54:25.072Z,67.94
2023-02-27T10:56:55.894Z,66.18
2023-02-27T10:59:29.930Z,65.04
2023-02-27T11:02:00.495Z,64.87
2023-02-27T11:04:33.336Z,63.98
2023-02-27T11:07:05.239Z,62.86
2023-02-27T11:09:35.440Z,65.16
2023-02-27T11:12:20.137Z,67.30
2023-02-27T11:14:55.311Z,68.48
2023-02-27T11:17:29.560Z,69.74
2023-02-27T11:19:59.458Z,70.81
2023-02-27T11:22:29.865Z,71.53
2023-02-27T11:25:21.416Z,70.16
2023-02-27T11:27:52.316Z,69.64
2023-02-27T11:30:32.211Z,69.82
2023-02-27T11:33:02.934Z,67.68
2023-02-27T11:35:34.483Z,67.28
2023-02-27T11:38:05.855Z,65.81
2023-02-27T11:40:39.462Z,65.81
2023-02-27T11:43:17.503Z,65.07
2023-02-27T11:46:05.860Z,66.09
2023-02-27T11:48:43.492Z,65.48
2023-02-27T11:51:33.608Z,65.94
2023-02-27T11:54:16.381Z,67.00
2023-02-27T11:56:45.841Z,68.80
2023-02-27T11:59:25.377Z,68.26
2023-02-27T12:02:01.120Z,68.34
2023-02-27T12:04:40.967Z,67.75
2023-02-27T12:07:18.660Z,67.45
2023-02-27T12:09:53.133Z,66.04
2023-02-27T12:12:25.306Z,65.21
2023-02-27T12:15:02.419Z,64.28
2023-02-27T12:17:41.248Z,65.57
2023-02-27T12:20:26.472Z,63.80
2023-02-27T12:22:56.479Z,61.78
2023-02-27T12:25:36.090Z,59.98
2023-02-27T12:28:14.463Z,57.71
2023-02-27T12:30:48.939Z,58.23
2023-02-27T12:33:29.489Z,57.29
2023-02-27T12:36:03.613Z,57.40
2023-02-27T12:38:34.461Z,57.46
2023-02-27T12:41:17.367Z,55.56
2023-02-27T12:43:54.600Z,56.20
2023-02-27T12:46:32.319Z,56.72
2023-02-27T12:49:17.633Z,55.52
2023-02-27T12:51:55.211Z,55.63
2023-02-27T12:54:37.079Z,52.46
2023-02-27T12:57:23.897Z,53.31
2023-02-27T13:00:16.417Z,52.67
2023-02-27T13:02:54.782Z,54.49
2023-02-27T13:05:50.526Z,53.28
2023-02-27T13:08:48.464Z,55.43
2023-02-27T13:11:37.787Z,54.03
2023-02-27T13:14:12.569Z,51.74
2023-02-27T13:16:45.358Z,53.02
2023-02-27T13:19:16.941Z,53.51
2023-02-27T13:21:53.388Z,53.41
2023-02-27T13:24:27.180Z,51.94
2023-02-27T13:27:01.916Z,52.16
2023-02-27T13:29:39.811Z,52.42
2023-02-27T13:32:32.759Z,51.64
2023-02-27T13:35:21.454Z,49.46
2023-02-27T13:38:01.704Z,48.64
2023-02-27T13:40:33.645Z,48.30
2023-02-27T13:43:07.347Z,49.56
2023-02-27T13:45:54.332Z,50.40
2023-02-27T13:48:41.227Z,51.42
2023-02-27T13:51:46.982Z,51.88
2023-02-27T13:54:22.034Z,51.33
2023-02-27T13:56:52.556Z,49.84
2023-02-27T13:59:24.649Z,50.89
2023-02-27T14:01:55.925Z,51.23
2023-02-27T14:04:27.455Z,50.54
2023-02-27T14:07:01.745Z,51.90
2023-02-27T14:09:39.173Z,53.12
2023-02-27T14:12:30.921Z,52.44
2023-02-27T14:15:46.527Z,53.27
2023-02-27T14:18:47.737Z,53.37
2023-02-27T14:21:56.583Z,51.59
2023-02-27T14:24:30.084Z,52.36
2023-02-27T14:27:01.370Z,52.64
2023-02-27T14:29:33.664Z,53.04
2023-02-27T14:32:08.817Z,51.65
2023-02-27T14:34:39.439Z,51.06
2023-02-27T14:37:12.403Z,50.58
2023-02-27T14:39:41.753Z,51.48
2023-02-27T14:42:33.023Z,49.86
2023-02-27T14:45:01.662Z,50.78
2023-02-27T14:47:33.152Z,49.34
2023-02-27T14:50:04.128Z,49.79
2023-02-27T14:52:41.990Z,50.14
2023-02-27T14:55:18.001Z,51.71
2023-02-27T14:57:59.152Z,51.22
2023-02-27T15:00:35.192Z,50.45
2023-02-27T15:03:13.429Z,50.52
2023-02-27T15:05:41.994Z,51.42
2023-02-27T15:08:16.636Z,51.17
2023-02-27T15:10:45.756Z,50.89
2023-02-27T15:13:33.866Z,50.85
2023-02-27T15:16:35.906Z,52.35
2023-02-27T15:19:16.991Z,52.26
2023-02-27T15:21:49.743Z,51.69
2023-02-27T15:24:27.782Z,52.99
2023-02-27T15:27:01.144Z,53.20
2023-02-27T15:29:35.471Z,53.59
2023-02-27T15:32:05.693Z,52.67
2023-02-27T15:34:36.433Z,51.96
2023-02-27T15:37:07.243Z,53.45
2023-02-27T15:39:36.941Z,54.57
2023-02-27T15:42:07.134Z,54.44
2023-02-27T15:44:44.295Z,55.50
2023-02-27T15:47:16.983Z,56.09
2023-02-27T15:49:45.436Z,55.06
2023-02-27T15:52:17.882Z,53.77
2023-02-27T15:54:48.462Z,53.94
2023-02-27T15:57:17.043Z,55.68
2023-02-27T15:59:46.765Z,56.12
2023-02-27T16:02:20.043Z,56.14
2023-02-27T16:04:48.964Z,55.77
2023-02-27T16:07:21.573Z,54.93
2023-02-27T16:09:53.872Z,54.90
2023-02-27T16:12:30.944Z,54.64
2023-02-27T16:15:21.782Z,54.41
2023-02-27T16:17:59.169Z,54.81
2023-02-27T16:20:37.584Z,55.26
2023-02-27T16:23:07.335Z,55.18
2023-02-27T16:25:35.754Z,56.13
2023-02-27T16:28:04.250Z,56.39
2023-02-27T16:30:34.004Z,55.28
2023-02-27T16:33:03.061Z,55.15
2023-02-27T16:35:32.012Z,55.19
2023-02-27T16:38:03.656Z,55.37
2023-02-27T16:40:33.967Z,56.35
2023-02-27T16:43:02.477Z,56.07
2023-02-27T16:45:32.115Z,56.04
2023-02-27T16:48:02.970Z,56.25
2023-02-27T16:50:36.303Z,55.25
2023-02-27T16:53:04.514Z,54.75
2023-02-27T16:55:34.007Z,55.33
2023-02-27T16:58:02.312Z,55.66
2023-02-27T17:00:30.987Z,56.25
2023-02-27T17:02:59.211Z,56.54
2023-02-27T17:05:28.884Z,57.57
2023-02-27T17:07:57.072Z,57.76
2023-02-27T17:10:25.698Z,57.96
2023-02-27T17:12:53.976Z,57.78
2023-02-27T17:15:22.540Z,57.31
2023-02-27T17:17:50.994Z,57.15
2023-02-27T17:20:19.635Z,57.19
2023-02-27T17:22:49.238Z,57.38
2023-02-27T17:25:17.519Z,57.59
2023-02-27T17:27:46.232Z,57.94
2023-02-27T17:30:15.509Z,57.08
2023-02-27T17:32:43.737Z,57.02
2023-02-27T17:35:12.525Z,56.72
2023-02-27T17:37:40.747Z,57.03
2023-02-27T17:40:12.351Z,57.61
2023-02-27T17:42:41.240Z,58.15
2023-02-27T17:45:10.813Z,58.11
2023-02-27T17:47:39.103Z,58.19
2023-02-27T17:50:07.616Z,58.37
2023-02-27T17:52:36.774Z,58.48
2023-02-27T17:55:05.959Z,59.27
2023-02-27T17:57:38.064Z,59.25
2023-02-27T18:00:09.072Z,59.54
2023-02-27T18:02:38.030Z,59.76
2023-02-27T18:05:06.863Z,59.84
2023-02-27T18:07:35.638Z,60.11
2023-02-27T18:10:05.498Z,60.41
2023-02-27T18:12:34.415Z,60.60
2023-02-27T18:15:05.870Z,60.75
2023-02-27T18:17:34.652Z,60.72
2023-02-27T18:20:02.963Z,61.13
2023-02-27T18:22:33.233Z,61.17
2023-02-27T18:25:01.615Z,61.18
2023-02-27T18:27:30.519Z,61.24
2023-02-27T18:29:59.304Z,61.49
2023-02-27T18:32:29.104Z,61.55
2023-02-27T18:34:57.378Z,61.72
2023-02-27T18:37:25.635Z,61.88
2023-02-27T18:39:54.221Z,62.27
2023-02-27T18:42:22.488Z,62.30
2023-02-27T18:44:50.790Z,62.73
2023-02-27T18:47:19.072Z,62.94
2023-02-27T18:49:48.683Z,62.81
2023-02-27T18:52:17.223Z,63.37
2023-02-27T18:54:45.432Z,63.37
2023-02-27T18:57:13.773Z,63.95
2023-02-27T18:59:42.081Z,64.00
2023-02-27T19:02:15.912Z,64.33
2023-02-27T19:04:44.335Z,64.23
2023-02-27T19:07:14.496Z,64.68
2023-02-27T19:09:43.267Z,64.70
2023-02-27T19:12:11.919Z,64.31
2023-02-27T19:14:40.703Z,64.71
2023-02-27T19:17:09.026Z,64.43
2023-02-27T19:19:37.489Z,64.31
2023-02-27T19:22:05.809Z,64.27
2023-02-27T19:24:35.452Z,64.17
2023-02-27T19:27:03.824Z,64.28
2023-02-27T19:29:32.323Z,64.37
2023-02-27T19:32:02.264Z,64.33
2023-02-27T19:34:30.643Z,64.45
2023-02-27T19:36:58.997Z,64.52
2023-02-27T19:39:27.282Z,64.32
2023-02-27T19:41:57.604Z,64.40
2023-02-27T19:44:26.715Z,64.38
2023-02-27T19:46:55.122Z,64.58
2023-02-27T19:49:23.378Z,64.52
2023-02-27T19:51:52.352Z,64.58
2023-02-27T19:54:20.651Z,64.33
2023-02-27T19:56:49.222Z,64.67
2023-02-27T19:59:19.029Z,64.46
2023-02-27T20:01:47.661Z,65.08
2023-02-27T20:04:17.712Z,64.76
2023-02-27T20:06:47.832Z,64.79
2023-02-27T20:09:20.463Z,64.73
2023-02-27T20:11:49.115Z,64.50
2023-02-27T20:14:19.340Z,64.79
2023-02-27T20:16:47.801Z,64.65
2023-02-27T20:19:17.892Z,64.52
2023-02-27T20:21:47.204Z,64.71
2023-02-27T20:24:18.268Z,64.58
2023-02-27T20:26:48.477Z,64.70
2023-02-27T20:29:20.400Z,64.62
2023-02-27T20:31:50.906Z,65.13
2023-02-27T20:34:22.075Z,64.77
2023-02-27T20:36:51.178Z,64.73
2023-02-27T20:39:20.514Z,64.43
2023-02-27T20:41:49.336Z,64.72
2023-02-27T20:44:17.702Z,64.70
2023-02-27T20:46:49.436Z,64.83
2023-02-27T20:49:18.480Z,64.86
2023-02-27T20:51:47.045Z,65.21
2023-02-27T20:54:20.613Z,65.41
2023-02-27T20:56:51.976Z,65.59
2023-02-27T20:59:22.449Z,65.53
2023-02-27T21:01:52.729Z,65.22
2023-02-27T21:04:22.657Z,65.32
2023-02-27T21:06:51.513Z,65.68
2023-02-27T21:09:20.382Z,65.69
2023-02-27T21:11:48.696Z,65.56
2023-02-27T21:14:16.976Z,66.00
2023-02-27T21:16:45.179Z,65.82
2023-02-27T21:19:15.200Z,65.84
2023-02-27T21:21:43.521Z,65.95
2023-02-27T21:24:11.810Z,65.95
2023-02-27T21:26:40.746Z,66.43
2023-02-27T21:29:11.035Z,66.67
2023-02-27T21:31:41.032Z,66.75
2023-02-27T21:34:16.921Z,66.77
2023-02-27T21:36:47.766Z,67.09
2023-02-27T21:39:17.790Z,67.45
2023-02-27T21:41:46.612Z,67.28
2023-02-27T21:44:17.460Z,67.08
2023-02-27T21:46:46.352Z,67.09
2023-02-27T21:49:17.300Z,67.18
2023-02-27T21:51:47.438Z,67.20
2023-02-27T21:54:16.703Z,67.17
2023-02-27T21:56:46.354Z,67.52
2023-02-27T21:59:15.167Z,67.40
2023-02-27T22:01:47.283Z,67.46
2023-02-27T22:04:16.142Z,67.45
2023-02-27T22:06:44.522Z,67.58
2023-02-27T22:09:14.623Z,67.80
2023-02-27T22:11:43.222Z,67.73
2023-02-27T22:14:13.030Z,67.95
2023-02-27T22:16:41.991Z,67.66
2023-02-27T22:19:12.341Z,68.23
2023-02-27T22:21:41.216Z,68.12
2023-02-27T22:24:09.753Z,67.87
2023-02-27T22:26:39.950Z,67.98
2023-02-27T22:29:08.274Z,68.06
2023-02-27T22:31:39.111Z,68.22
2023-02-27T22:34:12.154Z,68.18
2023-02-27T22:36:41.751Z,68.17
2023-02-27T22:39:10.172Z,68.18
2023-02-27T22:41:41.230Z,68.31
2023-02-27T22:44:10.910Z,68.73
2023-02-27T22:46:41.312Z,68.61
2023-02-27T22:49:12.915Z,69.11
2023-02-27T22:51:41.328Z,69.44
2023-02-27T22:54:11.303Z,69.02
2023-02-27T22:56:41.897Z,69.13
2023-02-27T22:59:11.040Z,69.45
2023-02-27T23:01:39.591Z,69.73
2023-02-27T23:04:11.529Z,69.73
2023-02-27T23:06:41.125Z,70.12
2023-02-27T23:09:13.638Z,70.11
2023-02-27T23:11:43.652Z,70.37
2023-02-27T23:14:13.148Z,70.12
2023-02-27T23:16:45.616Z,70.10
2023-02-27T23:19:15.646Z,70.06
2023-02-27T23:21:44.341Z,69.93
2023-02-27T23:24:14.656Z,70.00
2023-02-27T23:26:46.573Z,69.91
2023-02-27T23:29:15.270Z,70.04
2023-02-27T23:31:43.783Z,69.73
2023-02-27T23:34:12.526Z,69.96
2023-02-27T23:36:40.968Z,69.57
2023-02-27T23:39:10.025Z,69.87
2023-02-27T23:41:38.258Z,69.79
2023-02-27T23:44:25.570Z,69.65
2023-02-27T23:46:53.799Z,69.45
2023-02-27T23:49:22.300Z,69.53
2023-02-27T23:51:50.614Z,69.86
2023-02-27T23:54:19.627Z,69.54
2023-02-27T23:56:48.668Z,69.34
2023-02-27T23:59:18.404Z,69.59
